createdAt,value
2019-02-20T00:01:42.575Z,100.00
2019-02-20T00:04:15.629Z,100.00
2019-02-20T00:06:48.655Z,100.00
2019-02-20T00:09:20.381Z,100.00
2019-02-20T00:11:52.237Z,100.00
2019-02-20T00:14:24.145Z,100.00
2019-02-20T00:16:56.038Z,100.00
2019-02-20T00:19:28.405Z,100.00
2019-02-20T00:22:00.332Z,100.00
2019-02-20T00:24:32.078Z,100.00
2019-02-20T00:27:03.676Z,100.00
2019-02-20T00:29:35.588Z,100.00
2019-02-20T00:32:07.283Z,100.00
2019-02-20T00:34:39.111Z,100.00
2019-02-20T00:37:10.873Z,100.00
2019-02-20T00:39:42.443Z,100.00
2019-02-20T00:42:14.123Z,100.00
2019-02-20T00:45:22.516Z,100.00
2019-02-20T00:48:18.220Z,100.00
2019-02-20T00:50:51.497Z,100.00
2019-02-20T00:53:27.784Z,100.00
2019-02-20T00:56:02.228Z,100.00
2019-02-20T00:58:34.131Z,100.00
2019-02-20T01:01:05.898Z,100.00
2019-02-20T01:03:37.773Z,100.00
2019-02-20T01:06:12.268Z,100.00
2019-02-20T01:08:44.383Z,100.00
2019-02-20T01:11:15.927Z,100.00
2019-02-20T01:13:47.633Z,100.00
2019-02-20T01:16:19.201Z,100.00
2019-02-20T01:18:50.897Z,100.00
2019-02-20T01:21:22.685Z,100.00
2019-02-20T01:23:54.538Z,100.00
2019-02-20T01:26:26.181Z,100.00
2019-02-20T01:28:57.921Z,100.00
2019-02-20T01:31:29.834Z,100.00
2019-02-20T01:34:01.670Z,100.00
2019-02-20T01:36:34.191Z,100.00
2019-02-20T01:39:06.769Z,100.00
2019-02-20T01:41:38.408Z,100.00
2019-02-20T01:44:10.000Z,100.00
2019-02-20T01:46:41.634Z,100.00
2019-02-20T01:49:14.322Z,100.00
2019-02-20T01:51:46.186Z,100.00
2019-02-20T01:54:17.776Z,100.00
2019-02-20T01:56:49.379Z,100.00
2019-02-20T01:59:21.140Z,100.00
2019-02-20T02:01:52.675Z,100.00
2019-02-20T02:04:24.384Z,100.00
2019-02-20T02:06:55.979Z,100.00
2019-02-20T02:09:27.601Z,100.00
2019-02-20T02:11:59.220Z,100.00
2019-02-20T02:14:30.851Z,100.00
2019-02-20T02:17:02.380Z,100.00
2019-02-20T02:19:34.297Z,100.00
2019-02-20T02:22:06.392Z,100.00
2019-02-20T02:24:37.856Z,100.00
2019-02-20T02:27:10.435Z,100.00
2019-02-20T02:29:42.030Z,100.00
2019-02-20T02:32:14.495Z,100.00
2019-02-20T02:34:46.071Z,100.00
2019-02-20T02:37:17.781Z,100.00
2019-02-20T02:39:49.422Z,99.82
2019-02-20T02:42:21.030Z,99.34
2019-02-20T02:44:52.702Z,99.71
2019-02-20T02:47:24.506Z,99.87
2019-02-20T02:49:56.507Z,100.00
2019-02-20T02:52:28.139Z,100.00
2019-02-20T02:54:59.874Z,100.00
2019-02-20T02:57:31.712Z,100.00
2019-02-20T03:00:03.481Z,100.00
2019-02-20T03:02:35.397Z,100.00
2019-02-20T03:05:07.292Z,100.00
2019-02-20T03:07:39.105Z,100.00
2019-02-20T03:10:10.775Z,100.00
2019-02-20T03:12:42.628Z,100.00
2019-02-20T03:15:14.305Z,100.00
2019-02-20T03:17:45.801Z,100.00
2019-02-20T03:20:17.584Z,100.00
2019-02-20T03:22:49.263Z,100.00
2019-02-20T03:25:20.987Z,100.00
2019-02-20T03:27:53.316Z,100.00
2019-02-20T03:30:25.089Z,100.00
2019-02-20T03:32:56.770Z,100.00
2019-02-20T03:35:28.532Z,100.00
2019-02-20T03:38:00.250Z,100.00
2019-02-20T03:40:32.050Z,100.00
2019-02-20T03:43:04.267Z,100.00
2019-02-20T03:45:36.029Z,100.00
2019-02-20T03:48:07.692Z,100.00
2019-02-20T03:50:39.356Z,100.00
2019-02-20T03:53:11.101Z,100.00
2019-02-20T03:55:42.620Z,100.00
2019-02-20T03:58:14.299Z,100.00
2019-02-20T04:00:45.862Z,100.00
2019-02-20T04:03:17.678Z,100.00
2019-02-20T04:05:49.407Z,100.00
2019-02-20T04:08:21.081Z,100.00
2019-02-20T04:10:52.679Z,100.00
2019-02-20T04:13:24.386Z,100.00
2019-02-20T04:15:56.063Z,100.00
2019-02-20T04:18:27.739Z,100.00
2019-02-20T04:20:59.580Z,100.00
2019-02-20T04:23:31.243Z,100.00
2019-02-20T04:26:02.694Z,100.00
2019-02-20T04:28:41.413Z,100.00
2019-02-20T04:31:12.999Z,100.00
2019-02-20T04:33:44.727Z,100.00
2019-02-20T04:36:16.924Z,100.00
2019-02-20T04:38:48.551Z,100.00
2019-02-20T04:41:20.520Z,100.00
2019-02-20T04:43:52.119Z,100.00
2019-02-20T04:46:23.771Z,100.00
2019-02-20T04:49:01.646Z,100.00
2019-02-20T04:51:33.310Z,100.00
2019-02-20T04:54:12.958Z,100.00
2019-02-20T04:56:40.819Z,100.00
2019-02-20T04:59:12.513Z,100.00
2019-02-20T05:01:44.132Z,100.00
2019-02-20T05:04:16.243Z,100.00
2019-02-20T05:06:47.941Z,100.00
2019-02-20T05:09:19.632Z,100.00
2019-02-20T05:11:51.652Z,100.00
2019-02-20T05:14:23.553Z,100.00
2019-02-20T05:16:55.332Z,100.00
2019-02-20T05:19:27.435Z,100.00
2019-02-20T05:21:59.082Z,100.00
2019-02-20T05:24:50.053Z,100.00
2019-02-20T05:27:22.041Z,100.00
2019-02-20T05:29:54.083Z,100.00
2019-02-20T05:32:25.913Z,100.00
2019-02-20T05:34:57.588Z,100.00
2019-02-20T05:37:29.197Z,100.00
2019-02-20T05:40:01.507Z,100.00
2019-02-20T05:42:33.115Z,100.00
2019-02-20T05:45:04.766Z,100.00
2019-02-20T05:47:36.379Z,100.00
2019-02-20T05:50:08.275Z,100.00
2019-02-20T05:52:39.996Z,100.00
2019-02-20T05:55:12.362Z,100.00
2019-02-20T05:57:44.349Z,100.00
2019-02-20T06:00:16.273Z,100.00
2019-02-20T06:02:48.773Z,100.00
2019-02-20T06:05:20.788Z,100.00
2019-02-20T06:07:53.372Z,100.00
2019-02-20T06:10:25.294Z,100.00
2019-02-20T06:12:57.351Z,100.00
2019-02-20T06:15:29.061Z,100.00
2019-02-20T06:18:01.378Z,100.00
2019-02-20T06:20:33.009Z,100.00
2019-02-20T06:23:04.914Z,100.00
2019-02-20T06:25:36.536Z,100.00
2019-02-20T06:28:08.451Z,100.00
2019-02-20T06:30:40.295Z,100.00
2019-02-20T06:33:12.074Z,100.00
2019-02-20T06:35:44.064Z,100.00
2019-02-20T06:38:15.920Z,100.00
2019-02-20T06:40:47.680Z,100.00
2019-02-20T06:43:19.887Z,100.00
2019-02-20T06:45:51.878Z,100.00
2019-02-20T06:48:23.548Z,100.00
2019-02-20T06:50:55.421Z,100.00
2019-02-20T06:53:30.028Z,100.00
2019-02-20T06:56:01.977Z,96.76
2019-02-20T06:58:33.902Z,93.97
2019-02-20T07:01:05.760Z,93.08
2019-02-20T07:03:37.509Z,93.06
2019-02-20T07:07:05.238Z,93.02
2019-02-20T07:11:03.918Z,91.08
2019-02-20T07:14:18.573Z,90.11
2019-02-20T07:17:34.202Z,91.28
2019-02-20T07:21:14.441Z,90.14
2019-02-20T07:24:26.363Z,89.90
2019-02-20T07:28:01.459Z,84.88
2019-02-20T07:30:33.201Z,68.00
2019-02-20T07:33:04.972Z,57.80
2019-02-20T07:35:45.864Z,51.83
2019-02-20T07:38:17.980Z,48.30
2019-02-20T07:40:49.840Z,45.67
2019-02-20T07:43:21.664Z,45.93
2019-02-20T07:45:57.185Z,46.27
2019-02-20T07:48:31.624Z,46.32
2019-02-20T07:51:09.582Z,44.40
2019-02-20T07:53:45.333Z,43.73
2019-02-20T07:56:18.635Z,41.70
2019-02-20T07:58:53.619Z,40.63
2019-02-20T08:01:29.110Z,40.06
2019-02-20T08:04:04.285Z,39.52
2019-02-20T08:06:42.268Z,39.38
2019-02-20T08:09:18.041Z,37.47
2019-02-20T08:11:53.605Z,36.38
2019-02-20T08:14:28.077Z,36.73
2019-02-20T08:17:04.531Z,36.86
2019-02-20T08:19:40.816Z,35.45
2019-02-20T08:22:15.275Z,34.71
2019-02-20T08:24:51.100Z,34.07
2019-02-20T08:27:29.603Z,32.82
2019-02-20T08:30:07.040Z,33.77
2019-02-20T08:32:46.310Z,32.98
2019-02-20T08:35:21.545Z,31.59
2019-02-20T08:37:59.625Z,30.20
2019-02-20T08:40:35.664Z,30.02
2019-02-20T08:43:12.005Z,29.61
2019-02-20T08:45:47.304Z,29.23
2019-02-20T08:48:26.559Z,28.97
2019-02-20T08:51:02.565Z,27.39
2019-02-20T08:53:36.807Z,27.68
2019-02-20T08:56:13.745Z,27.74
2019-02-20T08:58:49.971Z,27.89
2019-02-20T09:01:24.430Z,27.53
2019-02-20T09:03:58.090Z,26.25
2019-02-20T09:06:31.372Z,25.00
2019-02-20T09:09:06.472Z,23.61
2019-02-20T09:11:42.419Z,22.96
2019-02-20T09:14:18.111Z,22.05
2019-02-20T09:16:54.658Z,21.99
2019-02-20T09:19:29.339Z,21.95
2019-02-20T09:22:19.444Z,22.54
2019-02-20T09:24:53.478Z,22.63
2019-02-20T09:27:29.080Z,22.14
2019-02-20T09:30:03.675Z,21.23
2019-02-20T09:32:35.874Z,21.43
2019-02-20T09:35:07.696Z,21.16
2019-02-20T09:37:45.289Z,21.30
2019-02-20T09:40:18.926Z,22.32
2019-02-20T09:42:50.962Z,22.14
2019-02-20T09:45:22.796Z,22.44
2019-02-20T09:47:54.979Z,24.96
2019-02-20T09:50:27.407Z,24.39
2019-02-20T09:52:59.405Z,26.09
2019-02-20T09:55:31.496Z,25.50
2019-02-20T09:58:03.097Z,22.89
2019-02-20T10:00:38.704Z,22.92
2019-02-20T10:03:11.059Z,22.89
2019-02-20T10:05:43.441Z,24.97
2019-02-20T10:08:15.179Z,24.48
2019-02-20T10:10:47.238Z,22.72
2019-02-20T10:13:19.245Z,21.81
2019-02-20T10:15:52.378Z,21.58
2019-02-20T10:18:23.925Z,22.69
2019-02-20T10:20:55.795Z,22.60
2019-02-20T10:23:27.467Z,21.87
2019-02-20T10:26:01.152Z,22.41
2019-02-20T10:28:40.117Z,23.28
2019-02-20T10:31:11.823Z,22.93
2019-02-20T10:33:43.642Z,23.28
2019-02-20T10:36:15.742Z,22.94
2019-02-20T10:38:47.769Z,24.17
2019-02-20T10:41:19.735Z,24.49
2019-02-20T10:43:52.618Z,26.50
2019-02-20T10:46:25.012Z,23.83
2019-02-20T10:48:56.779Z,22.29
2019-02-20T10:51:28.877Z,23.25
2019-02-20T10:54:00.893Z,21.78
2019-02-20T10:56:32.965Z,21.59
2019-02-20T10:59:05.051Z,21.29
2019-02-20T11:01:37.547Z,20.92
2019-02-20T11:04:09.529Z,21.11
2019-02-20T11:06:41.707Z,20.31
2019-02-20T11:09:16.384Z,20.58
2019-02-20T11:11:47.967Z,20.65
2019-02-20T11:14:19.908Z,22.18
2019-02-20T11:16:51.703Z,22.30
2019-02-20T11:19:23.574Z,22.64
2019-02-20T11:21:55.653Z,23.05
2019-02-20T11:24:27.431Z,23.95
2019-02-20T11:26:59.468Z,23.72
2019-02-20T11:29:31.534Z,22.84
2019-02-20T11:32:03.217Z,22.25
2019-02-20T11:34:36.154Z,21.27
2019-02-20T11:37:07.851Z,20.13
2019-02-20T11:39:44.218Z,20.29
2019-02-20T11:42:16.027Z,20.29
2019-02-20T11:44:47.991Z,21.36
2019-02-20T11:47:20.833Z,21.86
2019-02-20T11:49:53.377Z,21.13
2019-02-20T11:52:25.311Z,20.79
2019-02-20T11:54:57.251Z,21.52
2019-02-20T11:57:29.010Z,21.34
2019-02-20T12:00:00.924Z,20.25
2019-02-20T12:02:37.477Z,20.29
2019-02-20T12:05:06.338Z,20.21
2019-02-20T12:07:38.602Z,20.50
2019-02-20T12:10:12.798Z,21.76
2019-02-20T12:12:44.991Z,21.88
2019-02-20T12:15:16.670Z,22.17
2019-02-20T12:17:48.875Z,21.44
2019-02-20T12:20:20.643Z,22.01
2019-02-20T12:22:52.686Z,22.79
2019-02-20T12:25:24.949Z,23.89
2019-02-20T12:27:57.025Z,23.21
2019-02-20T12:30:30.805Z,21.79
2019-02-20T12:33:03.772Z,21.30
2019-02-20T12:35:35.483Z,21.88
2019-02-20T12:38:07.368Z,22.27
2019-02-20T12:40:40.683Z,22.15
2019-02-20T12:43:12.396Z,22.52
2019-02-20T12:45:44.277Z,22.87
2019-02-20T12:48:16.929Z,22.76
2019-02-20T12:50:49.041Z,21.90
2019-02-20T12:53:21.691Z,21.76
2019-02-20T12:56:00.797Z,22.11
2019-02-20T12:58:32.498Z,21.88
2019-02-20T13:01:11.069Z,22.25
2019-02-20T13:03:43.017Z,23.46
2019-02-20T13:06:14.855Z,24.11
2019-02-20T13:08:46.977Z,23.98
2019-02-20T13:11:18.962Z,22.84
2019-02-20T13:13:51.902Z,23.77
2019-02-20T13:16:24.248Z,23.00
2019-02-20T13:18:57.282Z,22.69
2019-02-20T13:21:29.342Z,23.29
2019-02-20T13:24:03.160Z,23.10
2019-02-20T13:26:35.055Z,23.50
2019-02-20T13:29:08.002Z,23.58
2019-02-20T13:31:40.022Z,23.66
2019-02-20T13:34:12.420Z,23.91
2019-02-20T13:36:44.477Z,24.10
2019-02-20T13:39:16.424Z,23.51
2019-02-20T13:41:48.250Z,23.17
2019-02-20T13:44:20.040Z,23.52
2019-02-20T13:46:51.967Z,24.00
2019-02-20T13:49:24.183Z,23.23
2019-02-20T13:51:56.410Z,23.20
2019-02-20T13:54:28.272Z,23.28
2019-02-20T13:57:04.925Z,25.21
2019-02-20T13:59:34.443Z,25.18
2019-02-20T14:02:08.551Z,25.15
2019-02-20T14:04:40.880Z,24.92
2019-02-20T14:07:13.065Z,24.90
2019-02-20T14:09:45.421Z,24.78
2019-02-20T14:12:17.655Z,24.90
2019-02-20T14:14:49.570Z,24.84
2019-02-20T14:17:26.739Z,25.55
2019-02-20T14:19:56.227Z,25.63
2019-02-20T14:22:29.111Z,26.32
2019-02-20T14:25:02.685Z,26.72
2019-02-20T14:27:35.128Z,25.86
2019-02-20T14:30:07.122Z,26.59
2019-02-20T14:32:39.345Z,26.57
2019-02-20T14:35:11.446Z,27.42
2019-02-20T14:37:43.541Z,27.77
2019-02-20T14:40:15.433Z,27.22
2019-02-20T14:42:47.997Z,27.67
2019-02-20T14:45:19.753Z,27.59
2019-02-20T14:47:51.573Z,27.04
2019-02-20T14:50:23.682Z,26.76
2019-02-20T14:52:55.659Z,26.83
2019-02-20T14:55:27.991Z,27.57
2019-02-20T14:58:00.188Z,28.65
2019-02-20T15:00:32.335Z,28.66
2019-02-20T15:03:04.500Z,28.06
2019-02-20T15:05:36.330Z,28.43
2019-02-20T15:08:08.408Z,28.70
2019-02-20T15:10:40.169Z,28.57
2019-02-20T15:13:12.030Z,28.42
2019-02-20T15:15:44.201Z,28.80
2019-02-20T15:18:16.198Z,28.73
2019-02-20T15:20:48.828Z,29.11
2019-02-20T15:23:29.150Z,29.24
2019-02-20T15:26:00.961Z,29.48
2019-02-20T15:28:33.510Z,30.41
2019-02-20T15:31:05.796Z,30.53
2019-02-20T15:33:37.951Z,30.13
2019-02-20T15:36:10.251Z,30.54
2019-02-20T15:38:42.767Z,30.79
2019-02-20T15:41:28.206Z,31.69
2019-02-20T15:44:00.574Z,32.14
2019-02-20T15:46:32.666Z,32.32
2019-02-20T15:49:04.929Z,32.44
2019-02-20T15:51:36.801Z,32.26
2019-02-20T15:54:08.743Z,32.24
2019-02-20T15:56:41.145Z,32.52
2019-02-20T15:59:13.282Z,32.36
2019-02-20T16:01:45.693Z,32.61
2019-02-20T16:04:18.101Z,32.64
2019-02-20T16:06:50.674Z,33.08
2019-02-20T16:09:22.431Z,33.55
2019-02-20T16:11:54.211Z,33.84
2019-02-20T16:14:25.973Z,34.23
2019-02-20T16:16:58.417Z,34.74
2019-02-20T16:19:30.873Z,35.65
2019-02-20T16:22:03.162Z,36.52
2019-02-20T16:24:35.013Z,37.28
2019-02-20T16:27:07.432Z,37.91
2019-02-20T16:29:39.193Z,38.42
2019-02-20T16:32:11.116Z,38.77
2019-02-20T16:34:42.994Z,39.71
2019-02-20T16:37:14.795Z,40.47
2019-02-20T16:39:46.620Z,41.28
2019-02-20T16:42:18.602Z,43.05
2019-02-20T16:44:51.016Z,43.71
2019-02-20T16:47:23.177Z,44.89
2019-02-20T16:49:55.017Z,45.85
2019-02-20T16:52:28.106Z,47.20
2019-02-20T16:55:00.559Z,47.90
2019-02-20T16:57:33.152Z,48.66
2019-02-20T17:00:06.151Z,49.93
2019-02-20T17:02:38.632Z,51.67
2019-02-20T17:05:14.245Z,52.62
2019-02-20T17:07:45.380Z,53.62
2019-02-20T17:10:16.924Z,56.24
2019-02-20T17:12:49.247Z,55.36
2019-02-20T17:15:23.150Z,56.31
2019-02-20T17:17:55.310Z,57.07
2019-02-20T17:20:27.183Z,57.98
2019-02-20T17:22:58.995Z,59.10
2019-02-20T17:25:31.200Z,59.42
2019-02-20T17:28:06.042Z,60.41
2019-02-20T17:30:38.206Z,62.66
2019-02-20T17:33:10.017Z,61.65
2019-02-20T17:35:42.477Z,61.53
2019-02-20T17:38:14.437Z,62.25
2019-02-20T17:40:46.141Z,63.63
2019-02-20T17:43:18.558Z,63.70
2019-02-20T17:45:50.599Z,63.78
2019-02-20T17:48:24.351Z,64.28
2019-02-20T17:50:58.085Z,64.48
2019-02-20T17:53:30.996Z,64.83
2019-02-20T17:56:03.894Z,66.03
2019-02-20T17:58:37.612Z,65.98
2019-02-20T18:01:16.252Z,66.54
2019-02-20T18:03:48.645Z,67.01
2019-02-20T18:06:20.592Z,68.25
2019-02-20T18:08:52.662Z,67.46
2019-02-20T18:11:24.350Z,68.08
2019-02-20T18:13:56.489Z,67.85
2019-02-20T18:16:28.305Z,68.27
2019-02-20T18:19:00.450Z,68.96
2019-02-20T18:21:32.657Z,69.81
2019-02-20T18:24:04.396Z,70.12
2019-02-20T18:26:36.335Z,70.92
2019-02-20T18:29:08.464Z,70.10
2019-02-20T18:31:40.260Z,69.91
2019-02-20T18:34:12.808Z,70.42
2019-02-20T18:36:44.956Z,71.74
2019-02-20T18:39:16.882Z,72.96
2019-02-20T18:41:48.799Z,72.71
2019-02-20T18:44:20.623Z,73.43
2019-02-20T18:46:52.246Z,74.15
2019-02-20T18:49:24.186Z,75.61
2019-02-20T18:51:56.152Z,75.31
2019-02-20T18:54:28.645Z,75.01
2019-02-20T18:57:00.712Z,75.05
2019-02-20T18:59:32.611Z,77.38
2019-02-20T19:02:04.830Z,74.60
2019-02-20T19:04:36.513Z,74.40
2019-02-20T19:07:15.876Z,73.49
2019-02-20T19:09:50.885Z,76.86
2019-02-20T19:13:28.342Z,74.86
2019-02-20T19:17:10.022Z,74.81
2019-02-20T19:21:05.922Z,76.31
2019-02-20T19:25:01.650Z,76.88
2019-02-20T19:28:03.198Z,76.71
2019-02-20T19:31:28.978Z,78.29
2019-02-20T19:35:16.884Z,78.01
2019-02-20T19:38:27.513Z,78.74
2019-02-20T19:42:05.544Z,79.60
2019-02-20T19:45:48.964Z,79.45
2019-02-20T19:48:49.914Z,80.22
2019-02-20T19:52:24.646Z,81.56
2019-02-20T19:55:20.638Z,81.90
2019-02-20T19:58:54.610Z,82.08
2019-02-20T20:02:45.931Z,82.52
2019-02-20T20:05:58.861Z,82.92
2019-02-20T20:09:16.533Z,82.86
2019-02-20T20:12:51.636Z,83.55
2019-02-20T20:16:08.141Z,83.11
2019-02-20T20:19:39.964Z,83.96
2019-02-20T20:23:14.599Z,84.95
2019-02-20T20:26:31.172Z,86.43
2019-02-20T20:29:58.747Z,87.09
2019-02-20T20:33:23.691Z,88.42
2019-02-20T20:36:34.238Z,89.05
2019-02-20T20:40:03.831Z,88.75
2019-02-20T20:43:28.200Z,89.43
2019-02-20T20:47:02.605Z,89.38
2019-02-20T20:50:00.549Z,89.72
2019-02-20T20:53:51.564Z,90.07
2019-02-20T20:57:11.425Z,90.64
2019-02-20T21:00:32.921Z,100.00
2019-02-20T21:03:12.848Z,100.00
2019-02-20T21:06:49.634Z,83.27
2019-02-20T21:10:47.174Z,82.39
2019-02-20T21:14:24.303Z,83.06
2019-02-20T21:17:50.401Z,84.63
2019-02-20T21:21:23.001Z,86.91
2019-02-20T21:24:45.198Z,88.12
2019-02-20T21:28:07.844Z,95.73
2019-02-20T21:31:33.888Z,88.97
2019-02-20T21:34:40.689Z,87.25
2019-02-20T21:38:37.406Z,87.28
2019-02-20T21:41:43.504Z,87.16
2019-02-20T21:45:19.629Z,87.73
2019-02-20T21:49:06.418Z,88.90
2019-02-20T21:52:40.655Z,90.82
2019-02-20T21:55:53.574Z,91.77
2019-02-20T21:58:57.195Z,92.85
2019-02-20T22:02:01.427Z,93.36
2019-02-20T22:05:10.970Z,93.83
2019-02-20T22:08:34.150Z,93.62
2019-02-20T22:11:53.594Z,93.79
2019-02-20T22:15:03.308Z,93.80
2019-02-20T22:18:08.797Z,94.60
2019-02-20T22:21:47.150Z,95.35
2019-02-20T22:25:09.929Z,95.84
2019-02-20T22:28:22.462Z,96.10
2019-02-20T22:31:36.880Z,96.52
2019-02-20T22:34:44.475Z,97.01
2019-02-20T22:38:22.648Z,97.40
2019-02-20T22:41:32.935Z,97.49
2019-02-20T22:45:33.395Z,97.95
2019-02-20T22:49:01.102Z,97.86
2019-02-20T22:52:18.584Z,98.33
2019-02-20T22:55:54.830Z,98.10
2019-02-20T22:59:26.245Z,98.71
2019-02-20T23:02:41.581Z,98.32
2019-02-20T23:06:20.074Z,98.15
2019-02-20T23:09:26.804Z,98.87
2019-02-20T23:13:03.610Z,99.67
2019-02-20T23:15:35.704Z,100.00
2019-02-20T23:18:07.694Z,100.00
2019-02-20T23:20:39.506Z,100.00
2019-02-20T23:23:11.213Z,100.00
2019-02-20T23:25:42.946Z,100.00
2019-02-20T23:28:14.776Z,100.00
2019-02-20T23:30:46.666Z,100.00
2019-02-20T23:33:18.700Z,100.00
2019-02-20T23:35:50.856Z,100.00
2019-02-20T23:38:23.379Z,100.00
2019-02-20T23:40:57.402Z,100.00
2019-02-20T23:43:29.144Z,100.00
2019-02-20T23:46:00.995Z,100.00
2019-02-20T23:48:33.016Z,100.00
2019-02-20T23:51:04.940Z,100.00
2019-02-20T23:53:36.668Z,100.00
2019-02-20T23:56:08.304Z,100.00
2019-02-20T23:58:42.496Z,100.00
